Grinders, Tennessee
Current Conditions -  °F | °C
As of 12:55 PM on Monday 20 Oct 2014 (Local Time) from KMRC Reporting Station
Scattered Clouds Scattered Clouds  
Wind Chill: 63°   Ceiling: Unl
Heat Index: 63°   Visibility: 10mi
Dew Point: 54°   Wind: 3mph
Humidity: 72%   Direction: NA
Pressure: 30.04"   Gusts: NA
Location:  35.7514°N, 87.5392°W
Report Text: KMRC 201755Z AUTO VRB03KT 10SM FEW025 SCT075 17/12 A3004 RMK
Loading
Personal Weather Stations






























Interactive Weather Map
Tropical Storm Tracking
New forecast layout! Learn more

10-Day Weather Forecast

Advertisements
Track Severe Weather on mobile